createdAt,value
2023-04-21T05:03:21.672Z,588.00
2023-04-21T05:04:21.845Z,590.00
2023-04-21T05:05:22.431Z,593.00
2023-04-21T05:06:21.438Z,594.00
2023-04-21T05:07:21.484Z,594.00
2023-04-21T05:08:22.520Z,591.00
2023-04-21T05:09:21.548Z,590.00
2023-04-21T05:10:21.556Z,588.00
2023-04-21T05:11:21.552Z,594.00
2023-04-21T05:12:22.593Z,595.00
2023-04-21T05:13:22.666Z,596.00
2023-04-21T05:14:22.737Z,597.00
2023-04-21T05:15:22.771Z,600.00
2023-04-21T05:16:21.862Z,602.00
2023-04-21T05:17:21.878Z,602.00
2023-04-21T05:18:22.910Z,603.00
2023-04-21T05:19:21.926Z,611.00
2023-04-21T05:20:22.972Z,615.00
2023-04-21T05:21:22.016Z,623.00
2023-04-21T05:22:23.043Z,606.00
2023-04-21T05:23:23.081Z,591.00
2023-04-21T05:24:23.144Z,587.00
2023-04-21T05:25:23.175Z,592.00
2023-04-21T05:26:23.241Z,607.00
2023-04-21T05:27:22.285Z,536.00
2023-04-21T05:28:23.306Z,526.00
2023-04-21T05:29:23.392Z,559.00
2023-04-21T05:30:23.387Z,549.00
2023-04-21T05:31:22.451Z,569.00
2023-04-21T05:32:22.923Z,561.00
2023-04-21T05:33:23.549Z,565.00
2023-04-21T05:34:23.573Z,551.00
2023-04-21T05:35:23.616Z,564.00
2023-04-21T05:36:23.788Z,562.00
2023-04-21T05:37:23.699Z,559.00
2023-04-21T05:38:23.734Z,579.00
2023-04-21T05:39:22.829Z,544.00
2023-04-21T05:40:23.838Z,633.00
2023-04-21T05:41:23.945Z,620.00
2023-04-21T05:42:23.948Z,590.00
2023-04-21T05:43:23.964Z,605.00
2023-04-21T05:44:23.995Z,602.00
2023-04-21T05:45:24.080Z,607.00
2023-04-21T05:46:23.242Z,625.00
2023-04-21T05:47:23.134Z,637.00
2023-04-21T05:48:24.066Z,702.00
2023-04-21T05:49:24.077Z,695.00
2023-04-21T05:50:24.150Z,795.00
2023-04-21T05:51:23.499Z,703.00
2023-04-21T05:52:23.542Z,733.00
2023-04-21T05:53:24.514Z,791.00
2023-04-21T05:54:24.340Z,803.00
2023-04-21T05:55:23.661Z,768.00
2023-04-21T05:56:23.427Z,823.00
2023-04-21T05:57:24.436Z,849.00
2023-04-21T05:58:23.487Z,919.00
2023-04-21T05:59:23.468Z,858.00
2023-04-21T06:00:23.450Z,896.00
2023-04-21T06:01:24.590Z,975.00
2023-04-21T06:02:23.766Z,1004.00
2023-04-21T06:03:24.911Z,975.00
2023-04-21T06:04:24.796Z,1010.00
2023-04-21T06:05:24.638Z,1045.00
2023-04-21T06:06:24.544Z,1058.00
2023-04-21T06:07:24.598Z,1106.00
2023-04-21T06:08:23.619Z,1140.00
2023-04-21T06:09:24.659Z,1145.00
2023-04-21T06:10:24.684Z,1226.00
2023-04-21T06:11:23.716Z,1238.00
2023-04-21T06:12:24.747Z,1230.00
2023-04-21T06:13:24.771Z,1276.00
2023-04-21T06:14:24.776Z,1398.00
2023-04-21T06:15:24.838Z,1359.00
2023-04-21T06:16:24.868Z,1372.00
2023-04-21T06:17:23.888Z,1412.00
2023-04-21T06:18:25.097Z,1421.00
2023-04-21T06:19:23.803Z,1470.00
2023-04-21T06:20:24.862Z,1524.00
2023-04-21T06:21:24.817Z,1536.00
2023-04-21T06:22:24.840Z,1576.00
2023-04-21T06:23:23.825Z,1622.00
2023-04-21T06:24:23.870Z,1622.00
2023-04-21T06:25:24.917Z,1632.00
2023-04-21T06:26:23.939Z,1642.00
2023-04-21T06:27:24.227Z,1664.00
2023-04-21T06:28:25.056Z,1705.00
2023-04-21T06:29:24.568Z,1745.00
2023-04-21T06:30:25.397Z,1738.00
2023-04-21T06:31:25.296Z,1771.00
2023-04-21T06:32:24.256Z,1802.00
2023-04-21T06:33:25.372Z,1809.00
2023-04-21T06:34:24.438Z,1808.00
2023-04-21T06:35:25.480Z,1809.00
2023-04-21T06:36:24.469Z,1874.00
2023-04-21T06:37:24.442Z,1896.00
2023-04-21T06:38:24.527Z,1896.00
2023-04-21T06:39:24.622Z,1908.00
2023-04-21T06:40:24.591Z,1978.00
2023-04-21T06:41:24.946Z,1982.00
2023-04-21T06:42:25.657Z,2127.00
2023-04-21T06:43:24.639Z,2127.00
2023-04-21T06:44:25.680Z,2107.00
2023-04-21T06:45:25.710Z,2118.00
2023-04-21T06:46:24.789Z,2109.00
2023-04-21T06:47:26.069Z,2110.00
2023-04-21T06:48:24.894Z,2129.00
2023-04-21T06:49:25.838Z,2172.00
2023-04-21T06:50:25.915Z,2260.00
2023-04-21T06:51:25.967Z,1984.00
2023-04-21T06:52:24.876Z,2098.00
2023-04-21T06:53:26.089Z,2138.00
2023-04-21T06:54:24.997Z,2086.00
2023-04-21T06:55:26.017Z,2190.00
2023-04-21T06:56:25.568Z,2187.00
2023-04-21T06:57:26.188Z,2194.00
2023-04-21T06:58:26.158Z,2198.00
2023-04-21T06:59:26.258Z,2202.00
2023-04-21T07:00:25.306Z,2198.00
2023-04-21T07:01:26.432Z,2193.00
2023-04-21T07:02:26.478Z,2188.00
2023-04-21T07:03:26.519Z,2183.00
2023-04-21T07:04:26.567Z,2178.00
2023-04-21T07:05:25.550Z,2173.00
2023-04-21T07:06:25.598Z,2175.00
2023-04-21T07:07:26.618Z,2176.00
2023-04-21T07:08:25.901Z,2171.00
2023-04-21T07:09:26.703Z,2160.00
2023-04-21T07:10:26.917Z,2154.00
2023-04-21T07:11:25.731Z,2155.00
2023-04-21T07:12:25.750Z,2150.00
2023-04-21T07:13:25.759Z,2149.00
2023-04-21T07:14:25.767Z,2145.00
2023-04-21T07:15:26.791Z,2139.00
2023-04-21T07:16:26.817Z,2140.00
2023-04-21T07:17:26.813Z,2138.00
2023-04-21T07:18:26.806Z,2132.00
2023-04-21T07:19:26.810Z,2136.00
2023-04-21T07:20:26.971Z,2132.00
2023-04-21T07:21:26.781Z,2133.00
2023-04-21T07:22:25.772Z,2132.00
2023-04-21T07:23:25.776Z,2132.00
2023-04-21T07:24:25.784Z,2132.00
2023-04-21T07:25:25.814Z,2130.00
2023-04-21T07:26:26.810Z,2129.00
2023-04-21T07:27:26.810Z,2130.00
2023-04-21T07:28:25.801Z,2128.00
2023-04-21T07:29:26.819Z,2125.00
2023-04-21T07:30:26.916Z,2117.00
2023-04-21T07:31:26.883Z,2103.00
2023-04-21T07:32:26.927Z,2103.00
2023-04-21T07:33:26.812Z,2086.00
2023-04-21T07:34:25.900Z,2084.00
2023-04-21T07:35:26.924Z,2070.00
2023-04-21T07:36:25.923Z,2058.00
2023-04-21T07:37:26.930Z,2056.00
2023-04-21T07:38:26.946Z,2060.00
2023-04-21T07:39:27.004Z,2068.00
2023-04-21T07:40:27.111Z,2093.00
2023-04-21T07:41:27.111Z,2094.00
2023-04-21T07:42:27.299Z,2100.00
2023-04-21T07:43:27.208Z,2105.00
2023-04-21T07:44:27.338Z,2101.00
2023-04-21T07:45:26.342Z,2101.00
2023-04-21T07:46:27.468Z,2099.00
2023-04-21T07:47:27.501Z,2027.00
2023-04-21T07:48:27.543Z,1838.00
2023-04-21T07:49:26.579Z,1784.00
2023-04-21T07:50:26.708Z,1824.00
2023-04-21T07:51:27.120Z,1781.00
2023-04-21T07:52:27.559Z,1741.00
2023-04-21T07:53:27.584Z,1708.00
2023-04-21T07:54:27.651Z,1679.00
2023-04-21T07:55:27.614Z,1659.00
2023-04-21T07:56:27.656Z,1617.00
2023-04-21T07:57:27.661Z,1583.00
2023-04-21T07:58:26.670Z,1540.00
2023-04-21T07:59:27.700Z,1526.00
2023-04-21T08:00:27.750Z,1514.00
2023-04-21T08:01:26.811Z,1504.00
2023-04-21T08:02:26.881Z,1471.00
2023-04-21T08:03:27.094Z,1477.00
2023-04-21T08:04:26.932Z,1453.00
2023-04-21T08:05:31.345Z,1427.00
2023-04-21T08:06:28.100Z,1419.00
2023-04-21T08:07:27.937Z,1394.00
2023-04-21T08:08:28.784Z,1379.00
2023-04-21T08:09:26.936Z,1369.00
2023-04-21T08:10:27.880Z,1354.00
2023-04-21T08:11:27.161Z,1342.00
2023-04-21T08:12:26.860Z,1319.00
2023-04-21T08:13:27.947Z,1300.00
2023-04-21T08:14:27.004Z,1286.00
2023-04-21T08:15:26.848Z,1285.00
2023-04-21T08:16:26.877Z,1276.00
2023-04-21T08:17:28.128Z,1243.00
2023-04-21T08:18:26.872Z,1241.00
2023-04-21T08:19:26.822Z,1231.00
2023-04-21T08:20:27.826Z,1224.00
2023-04-21T08:21:29.465Z,1195.00
2023-04-21T08:22:26.870Z,1239.00
2023-04-21T08:23:27.851Z,1188.00
2023-04-21T08:24:27.801Z,1166.00
2023-04-21T08:25:27.762Z,1161.00
2023-04-21T08:26:26.877Z,1168.00
2023-04-21T08:27:27.775Z,1126.00
2023-04-21T08:28:27.755Z,1115.00
2023-04-21T08:29:26.768Z,1115.00
2023-04-21T08:30:27.822Z,1115.00
2023-04-21T08:31:27.845Z,1101.00
2023-04-21T08:32:26.818Z,1090.00
2023-04-21T08:33:26.753Z,1066.00
2023-04-21T08:34:28.001Z,1074.00
2023-04-21T08:35:26.724Z,1073.00
2023-04-21T08:36:29.868Z,1065.00
2023-04-21T08:37:27.721Z,981.00
2023-04-21T08:38:26.715Z,979.00
2023-04-21T08:39:27.687Z,1016.00
2023-04-21T08:40:27.699Z,1023.00
2023-04-21T08:41:27.669Z,969.00
2023-04-21T08:42:27.130Z,965.00
2023-04-21T08:43:26.671Z,949.00
2023-04-21T08:44:27.651Z,953.00
2023-04-21T08:45:27.859Z,923.00
2023-04-21T08:46:27.798Z,885.00
2023-04-21T08:47:27.716Z,766.00
2023-04-21T08:48:26.628Z,730.00
2023-04-21T08:49:26.655Z,613.00
2023-04-21T08:50:27.620Z,568.00
2023-04-21T08:51:26.610Z,588.00
2023-04-21T08:52:26.626Z,551.00
2023-04-21T08:53:26.723Z,590.00
2023-04-21T08:54:29.881Z,619.00
2023-04-21T08:55:27.604Z,563.00
2023-04-21T08:56:27.599Z,567.00
2023-04-21T08:57:27.649Z,546.00
2023-04-21T08:58:27.571Z,522.00
2023-04-21T08:59:27.588Z,513.00
2023-04-21T09:00:26.645Z,516.00
2023-04-21T09:01:26.616Z,515.00
2023-04-21T09:02:26.658Z,493.00
2023-04-21T09:03:26.752Z,501.00
2023-04-21T09:04:28.884Z,501.00
2023-04-21T09:05:27.796Z,498.00
2023-04-21T09:06:27.701Z,470.00
2023-04-21T09:07:27.753Z,472.00
2023-04-21T09:08:26.830Z,475.00
2023-04-21T09:09:26.884Z,457.00
2023-04-21T09:10:27.968Z,474.00
2023-04-21T09:11:27.997Z,474.00
2023-04-21T09:12:28.083Z,499.00
2023-04-21T09:13:28.138Z,447.00
2023-04-21T09:14:28.191Z,449.00
2023-04-21T09:15:28.234Z,412.00
2023-04-21T09:16:28.324Z,464.00
2023-04-21T09:17:28.357Z,472.00
2023-04-21T09:18:28.345Z,437.00
2023-04-21T09:19:28.314Z,451.00
2023-04-21T09:20:28.333Z,466.00
2023-04-21T09:21:30.062Z,416.00
2023-04-21T09:22:27.342Z,410.00
2023-04-21T09:23:28.387Z,423.00
2023-04-21T09:24:28.312Z,421.00
2023-04-21T09:25:28.318Z,449.00
2023-04-21T09:26:28.311Z,439.00
2023-04-21T09:27:28.290Z,441.00
2023-04-21T09:28:28.281Z,445.00
2023-04-21T09:29:28.314Z,456.00
2023-04-21T09:30:28.256Z,430.00
2023-04-21T09:31:28.345Z,397.00
2023-04-21T09:32:28.326Z,428.00
2023-04-21T09:33:30.943Z,397.00
2023-04-21T09:34:28.289Z,439.00
2023-04-21T09:35:28.242Z,432.00
2023-04-21T09:36:28.257Z,445.00
2023-04-21T09:37:28.235Z,473.00
2023-04-21T09:38:28.216Z,451.00
2023-04-21T09:39:42.654Z,444.00
2023-04-21T09:40:28.199Z,466.00
2023-04-21T09:41:28.185Z,444.00
2023-04-21T09:42:28.257Z,448.00
2023-04-21T09:43:28.216Z,471.00
2023-04-21T09:44:28.257Z,489.00
2023-04-21T09:45:36.961Z,454.00
2023-04-21T09:46:28.370Z,468.00
2023-04-21T09:47:28.675Z,452.00
2023-04-21T09:48:28.152Z,463.00
2023-04-21T09:49:28.166Z,457.00
2023-04-21T09:51:01.794Z,460.00
2023-04-21T09:51:37.282Z,467.00
2023-04-21T09:52:28.101Z,462.00
2023-04-21T09:53:28.185Z,559.00
2023-04-21T09:54:29.986Z,480.00
2023-04-21T09:55:28.087Z,441.00
2023-04-21T09:56:28.082Z,479.00
2023-04-21T09:57:28.073Z,516.00
2023-04-21T09:58:27.066Z,461.00
2023-04-21T09:59:28.080Z,456.00
2023-04-21T10:00:28.055Z,466.00
2023-04-21T10:01:27.075Z,451.00
2023-04-21T10:02:28.237Z,450.00
2023-04-21T10:03:28.187Z,438.00
2023-04-21T10:04:27.758Z,468.00
2023-04-21T10:05:27.080Z,499.00
2023-04-21T10:06:28.041Z,502.00
2023-04-21T10:07:28.046Z,526.00
2023-04-21T10:08:28.006Z,468.00
2023-04-21T10:09:27.015Z,456.00
2023-04-21T10:10:27.015Z,429.00
2023-04-21T10:11:27.001Z,445.00
2023-04-21T10:12:26.964Z,435.00
2023-04-21T10:13:27.956Z,444.00
2023-04-21T10:14:27.959Z,444.00
2023-04-21T10:15:27.989Z,445.00
2023-04-21T10:16:28.028Z,445.00
2023-04-21T10:17:27.121Z,444.00
2023-04-21T10:18:26.916Z,425.00
2023-04-21T10:19:27.981Z,430.00
2023-04-21T10:20:27.926Z,443.00
2023-04-21T10:21:27.919Z,486.00
2023-04-21T10:22:26.913Z,441.00
2023-04-21T10:23:27.918Z,432.00
2023-04-21T10:24:27.858Z,431.00
2023-04-21T10:25:28.086Z,441.00
2023-04-21T10:26:27.867Z,449.00
2023-04-21T10:27:27.890Z,404.00
2023-04-21T10:28:27.881Z,425.00
2023-04-21T10:29:26.959Z,410.00
2023-04-21T10:30:28.000Z,430.00
2023-04-21T10:31:28.038Z,425.00
2023-04-21T10:32:28.152Z,422.00
2023-04-21T10:33:27.098Z,443.00
2023-04-21T10:34:27.138Z,436.00
2023-04-21T10:35:28.234Z,429.00
2023-04-21T10:36:27.184Z,419.00
2023-04-21T10:37:28.264Z,430.00
2023-04-21T10:38:27.223Z,424.00
2023-04-21T10:39:28.192Z,451.00
2023-04-21T10:40:42.560Z,420.00
2023-04-21T10:41:28.228Z,425.00
2023-04-21T10:42:28.188Z,405.00
2023-04-21T10:43:28.751Z,536.00
2023-04-21T10:44:27.301Z,574.00
2023-04-21T10:45:28.591Z,716.00
2023-04-21T10:46:28.261Z,687.00
2023-04-21T10:47:27.368Z,669.00
2023-04-21T10:48:27.196Z,738.00
2023-04-21T10:49:27.193Z,827.00
2023-04-21T10:50:28.218Z,734.00
2023-04-21T10:51:28.134Z,754.00
2023-04-21T10:52:28.128Z,767.00
2023-04-21T10:53:27.191Z,758.00
2023-04-21T10:54:27.168Z,759.00
2023-04-21T10:55:28.088Z,756.00
2023-04-21T10:56:27.072Z,728.00
2023-04-21T10:57:28.077Z,664.00
2023-04-21T10:58:27.114Z,667.00
2023-04-21T10:59:27.400Z,772.00
2023-04-21T11:00:28.155Z,761.00
2023-04-21T11:01:27.151Z,742.00
2023-04-21T11:02:28.201Z,677.00
2023-04-21T11:03:28.262Z,680.00
2023-04-21T11:04:28.705Z,709.00
2023-04-21T11:05:28.113Z,879.00
2023-04-21T11:06:28.110Z,889.00
2023-04-21T11:07:27.135Z,831.00
2023-04-21T11:08:28.349Z,705.00
2023-04-21T11:09:28.252Z,709.00
2023-04-21T11:10:27.266Z,689.00
2023-04-21T11:11:28.341Z,721.00
2023-04-21T11:12:27.464Z,710.00
2023-04-21T11:13:28.395Z,651.00
2023-04-21T11:14:27.484Z,749.00
2023-04-21T11:15:27.506Z,682.00
2023-04-21T11:16:28.549Z,684.00
2023-04-21T11:17:27.721Z,687.00
2023-04-21T11:18:28.646Z,706.00
2023-04-21T11:19:27.650Z,726.00
2023-04-21T11:20:27.697Z,614.00
2023-04-21T11:21:28.727Z,667.00
2023-04-21T11:22:28.753Z,682.00
2023-04-21T11:23:28.353Z,726.00
2023-04-21T11:24:27.921Z,671.00
2023-04-21T11:25:28.962Z,743.00
2023-04-21T11:26:28.927Z,723.00
2023-04-21T11:27:28.967Z,729.00
2023-04-21T11:28:27.967Z,784.00
2023-04-21T11:29:27.940Z,821.00
2023-04-21T11:30:27.999Z,892.00
2023-04-21T11:31:29.189Z,900.00
2023-04-21T11:32:29.351Z,908.00
2023-04-21T11:33:28.120Z,888.00
2023-04-21T11:34:28.386Z,858.00
2023-04-21T11:35:28.190Z,926.00
2023-04-21T11:36:29.204Z,910.00
2023-04-21T11:37:29.256Z,836.00
2023-04-21T11:38:29.672Z,859.00
2023-04-21T11:39:29.297Z,868.00
2023-04-21T11:40:29.313Z,866.00
2023-04-21T11:41:28.416Z,897.00
2023-04-21T11:42:28.386Z,867.00
2023-04-21T11:43:29.410Z,857.00
2023-04-21T11:44:28.391Z,852.00
2023-04-21T11:45:29.421Z,842.00
2023-04-21T11:46:29.480Z,836.00
2023-04-21T11:47:29.507Z,830.00
2023-04-21T11:48:28.517Z,827.00
2023-04-21T11:49:28.533Z,811.00
2023-04-21T11:50:28.539Z,799.00
2023-04-21T11:51:28.561Z,798.00
2023-04-21T11:52:29.658Z,790.00
2023-04-21T11:53:29.624Z,783.00
2023-04-21T11:54:28.663Z,757.00
2023-04-21T11:55:29.668Z,741.00
2023-04-21T11:56:29.691Z,740.00
2023-04-21T11:57:29.701Z,742.00
2023-04-21T11:58:29.725Z,740.00
2023-04-21T11:59:28.718Z,735.00
2023-04-21T12:00:28.789Z,731.00
2023-04-21T12:01:29.750Z,722.00
2023-04-21T12:02:28.904Z,719.00
2023-04-21T12:03:29.879Z,710.00
2023-04-21T12:04:29.891Z,702.00
2023-04-21T12:05:28.785Z,694.00
2023-04-21T12:06:29.788Z,694.00
2023-04-21T12:07:28.788Z,697.00
2023-04-21T12:08:28.774Z,692.00
2023-04-21T12:09:28.770Z,690.00
2023-04-21T12:10:28.765Z,690.00
2023-04-21T12:11:29.767Z,684.00
2023-04-21T12:12:28.758Z,686.00
2023-04-21T12:13:28.862Z,686.00
2023-04-21T12:14:28.780Z,685.00
2023-04-21T12:15:28.776Z,682.00
2023-04-21T12:16:29.875Z,677.00
2023-04-21T12:17:28.856Z,673.00
2023-04-21T12:18:29.893Z,672.00
2023-04-21T12:19:29.964Z,670.00
2023-04-21T12:20:30.388Z,665.00
2023-04-21T12:21:29.140Z,663.00
2023-04-21T12:22:30.153Z,655.00
2023-04-21T12:23:29.241Z,647.00
2023-04-21T12:24:29.279Z,648.00
2023-04-21T12:25:29.382Z,649.00
2023-04-21T12:26:29.399Z,648.00
2023-04-21T12:27:30.464Z,646.00
2023-04-21T12:28:30.560Z,641.00
2023-04-21T12:29:30.620Z,636.00
2023-04-21T12:30:30.780Z,635.00
2023-04-21T12:31:30.758Z,635.00
2023-04-21T12:32:29.771Z,636.00
2023-04-21T12:33:30.882Z,635.00
2023-04-21T12:34:29.908Z,630.00
2023-04-21T12:35:30.920Z,627.00
2023-04-21T12:36:30.065Z,623.00
2023-04-21T12:37:31.089Z,624.00
2023-04-21T12:38:30.204Z,619.00
2023-04-21T12:39:31.597Z,616.00
2023-04-21T12:40:31.162Z,612.00
2023-04-21T12:41:30.223Z,602.00
2023-04-21T12:42:31.257Z,603.00
2023-04-21T12:43:31.312Z,605.00
2023-04-21T12:44:30.368Z,608.00
2023-04-21T12:45:31.478Z,604.00
2023-04-21T12:46:30.489Z,603.00
2023-04-21T12:47:30.527Z,603.00
2023-04-21T12:48:30.598Z,602.00
2023-04-21T12:49:31.818Z,601.00
2023-04-21T12:50:31.693Z,597.00
2023-04-21T12:51:31.711Z,622.00
2023-04-21T12:52:31.758Z,597.00
2023-04-21T12:53:31.401Z,663.00
2023-04-21T12:54:31.801Z,537.00
2023-04-21T12:55:30.828Z,580.00
2023-04-21T12:56:30.896Z,547.00
2023-04-21T12:57:31.904Z,466.00
2023-04-21T12:58:31.962Z,532.00
2023-04-21T12:59:31.239Z,497.00
2023-04-21T13:00:32.060Z,500.00
2023-04-21T13:01:32.134Z,502.00
2023-04-21T13:02:31.272Z,498.00
2023-04-21T13:03:32.361Z,498.00
2023-04-21T13:04:32.653Z,488.00
2023-04-21T13:05:32.239Z,489.00
2023-04-21T13:06:31.203Z,463.00
2023-04-21T13:07:32.235Z,490.00
2023-04-21T13:08:31.255Z,486.00
2023-04-21T13:09:32.522Z,484.00
2023-04-21T13:10:31.251Z,479.00
2023-04-21T13:11:31.250Z,480.00
2023-04-21T13:12:31.268Z,479.00
2023-04-21T13:13:32.252Z,481.00
2023-04-21T13:14:32.273Z,481.00
2023-04-21T13:15:32.225Z,470.00
2023-04-21T13:16:32.354Z,470.00
2023-04-21T13:17:32.317Z,472.00
2023-04-21T13:18:31.340Z,472.00
2023-04-21T13:19:32.795Z,472.00
2023-04-21T13:20:32.448Z,473.00
2023-04-21T13:21:32.527Z,471.00
2023-04-21T13:22:31.576Z,469.00
2023-04-21T13:23:32.649Z,466.00
2023-04-21T13:24:32.749Z,469.00
2023-04-21T13:25:32.758Z,468.00
2023-04-21T13:26:32.779Z,471.00
2023-04-21T13:27:32.917Z,470.00
2023-04-21T13:28:31.951Z,471.00
2023-04-21T13:29:33.272Z,472.00
2023-04-21T13:30:32.987Z,470.00
2023-04-21T13:31:32.168Z,471.00
2023-04-21T13:32:33.186Z,472.00
2023-04-21T13:33:32.178Z,472.00
2023-04-21T13:34:32.470Z,470.00
2023-04-21T13:35:33.233Z,469.00
2023-04-21T13:36:33.275Z,467.00
2023-04-21T13:37:32.341Z,468.00
2023-04-21T13:38:32.701Z,449.00
2023-04-21T13:39:32.757Z,469.00
2023-04-21T13:40:33.464Z,459.00
2023-04-21T13:41:33.527Z,453.00
2023-04-21T13:42:33.478Z,442.00
2023-04-21T13:43:32.480Z,440.00
2023-04-21T13:44:32.493Z,435.00
2023-04-21T13:45:32.519Z,429.00
2023-04-21T13:46:32.571Z,425.00
2023-04-21T13:47:33.577Z,425.00
2023-04-21T13:48:33.831Z,421.00
2023-04-21T13:49:33.887Z,425.00
2023-04-21T13:50:32.524Z,427.00
2023-04-21T13:51:32.525Z,428.00
2023-04-21T13:52:32.572Z,429.00
2023-04-21T13:53:33.047Z,434.00
2023-04-21T13:54:32.829Z,534.00
2023-04-21T13:55:32.619Z,440.00
2023-04-21T13:56:32.670Z,439.00
2023-04-21T13:57:33.692Z,434.00
2023-04-21T13:58:32.748Z,428.00
2023-04-21T13:59:33.999Z,428.00
2023-04-21T14:00:32.770Z,429.00
2023-04-21T14:01:32.888Z,427.00
2023-04-21T14:02:33.168Z,436.00
2023-04-21T14:03:34.048Z,437.00
2023-04-21T14:04:34.188Z,438.00
2023-04-21T14:05:34.417Z,447.00
2023-04-21T14:06:33.087Z,443.00
2023-04-21T14:07:33.259Z,444.00
2023-04-21T14:08:34.184Z,442.00
2023-04-21T14:09:33.531Z,440.00
2023-04-21T14:10:33.323Z,441.00
2023-04-21T14:11:34.335Z,442.00
2023-04-21T14:12:34.369Z,439.00
2023-04-21T14:13:39.823Z,440.00
2023-04-21T14:15:33.484Z,441.00
2023-04-21T14:16:33.477Z,444.00
2023-04-21T14:17:34.419Z,448.00
2023-04-21T14:18:34.450Z,447.00
2023-04-21T14:19:34.773Z,450.00
2023-04-21T14:20:33.423Z,453.00
2023-04-21T14:21:34.389Z,453.00
2023-04-21T14:22:33.359Z,466.00
2023-04-21T14:23:33.390Z,454.00
2023-04-21T14:24:34.377Z,449.00
2023-04-21T14:25:34.368Z,454.00
2023-04-21T14:26:34.313Z,438.00
2023-04-21T14:27:34.419Z,439.00
2023-04-21T14:28:33.343Z,440.00
2023-04-21T14:29:34.575Z,452.00
2023-04-21T14:30:34.385Z,451.00
2023-04-21T14:31:34.307Z,445.00
2023-04-21T14:32:33.801Z,445.00
2023-04-21T14:33:34.323Z,442.00
2023-04-21T14:34:34.290Z,441.00
2023-04-21T14:35:34.281Z,436.00
2023-04-21T14:36:34.356Z,445.00
2023-04-21T14:37:33.340Z,445.00
2023-04-21T14:38:34.542Z,441.00
2023-04-21T14:39:33.551Z,437.00
2023-04-21T14:40:33.494Z,428.00
2023-04-21T14:41:33.448Z,430.00
2023-04-21T14:42:33.438Z,366.00
2023-04-21T14:43:34.466Z,450.00
2023-04-21T14:44:34.481Z,442.00
2023-04-21T14:45:34.481Z,437.00
2023-04-21T14:46:33.639Z,430.00
2023-04-21T14:47:33.611Z,433.00
2023-04-21T14:48:34.622Z,437.00
2023-04-21T14:49:34.903Z,455.00
2023-04-21T14:50:33.733Z,459.00
2023-04-21T14:51:34.800Z,437.00
2023-04-21T14:52:34.768Z,444.00
2023-04-21T14:53:34.851Z,457.00
2023-04-21T14:54:33.768Z,434.00
2023-04-21T14:55:34.808Z,424.00
2023-04-21T14:56:34.819Z,455.00
2023-04-21T14:57:33.804Z,431.00
2023-04-21T14:58:33.881Z,429.00
2023-04-21T14:59:34.042Z,444.00
2023-04-21T15:00:35.015Z,439.00
2023-04-21T15:01:35.037Z,442.00
2023-04-21T15:02:35.046Z,421.00
2023-04-21T15:03:34.080Z,439.00
2023-04-21T15:04:34.216Z,457.00
2023-04-21T15:05:35.092Z,438.00
2023-04-21T15:06:34.079Z,444.00
2023-04-21T15:07:35.115Z,442.00
2023-04-21T15:08:35.116Z,449.00
2023-04-21T15:09:34.242Z,437.00
2023-04-21T15:10:34.092Z,436.00
2023-04-21T15:11:34.083Z,436.00
2023-04-21T15:12:36.374Z,446.00
2023-04-21T15:13:35.160Z,451.00
2023-04-21T15:14:34.235Z,457.00
2023-04-21T15:15:35.248Z,460.00
2023-04-21T15:16:35.362Z,466.00
2023-04-21T15:17:34.427Z,467.00
2023-04-21T15:18:34.450Z,474.00
2023-04-21T15:19:35.740Z,478.00
2023-04-21T15:20:44.472Z,479.00
2023-04-21T15:21:35.521Z,483.00
2023-04-21T15:22:35.533Z,484.00
2023-04-21T15:23:34.559Z,490.00
2023-04-21T15:24:34.616Z,505.00
2023-04-21T15:25:34.506Z,498.00
2023-04-21T15:26:35.524Z,509.00
2023-04-21T15:27:34.513Z,503.00
2023-04-21T15:28:35.509Z,503.00
2023-04-21T15:29:34.672Z,510.00
2023-04-21T16:03:59.763Z,642.00
2023-04-21T16:05:00.758Z,644.00
2023-04-21T16:06:00.798Z,646.00
2023-04-21T16:06:59.615Z,663.00
2023-04-21T16:07:59.617Z,648.00
2023-04-21T16:08:59.695Z,644.00
2023-04-21T16:09:59.668Z,640.00
2023-04-21T16:11:00.913Z,640.00
2023-04-21T16:11:59.718Z,649.00
2023-04-21T16:12:59.766Z,639.00
2023-04-21T16:14:00.864Z,639.00
2023-04-21T16:15:09.297Z,641.00
2023-04-21T16:16:00.882Z,648.00
2023-04-21T16:16:59.843Z,649.00
2023-04-21T16:18:00.852Z,647.00
2023-04-21T16:18:59.763Z,643.00
2023-04-21T16:20:01.019Z,645.00
2023-04-21T16:21:00.778Z,650.00
2023-04-21T16:22:00.746Z,649.00
2023-04-21T16:22:59.728Z,653.00
2023-04-21T16:23:59.758Z,656.00
2023-04-21T16:25:00.909Z,659.00
2023-04-21T16:26:00.753Z,660.00
2023-04-21T16:26:59.704Z,671.00
2023-04-21T16:28:00.727Z,657.00
2023-04-21T16:29:00.670Z,648.00
2023-04-21T16:30:00.701Z,652.00
2023-04-21T16:31:00.655Z,658.00
2023-04-21T16:31:59.718Z,657.00
2023-04-21T16:33:00.651Z,658.00
2023-04-21T16:34:00.789Z,653.00
2023-04-21T16:35:00.713Z,647.00
2023-04-21T16:36:00.680Z,640.00
2023-04-21T16:37:00.664Z,650.00
2023-04-21T16:37:59.607Z,647.00
2023-04-21T16:39:00.594Z,650.00
2023-04-21T16:40:00.688Z,656.00
2023-04-21T16:40:59.639Z,638.00
2023-04-21T16:42:00.585Z,657.00
2023-04-21T16:42:59.578Z,633.00
2023-04-21T16:43:59.624Z,630.00
2023-04-21T16:45:00.595Z,645.00
2023-04-21T16:46:00.600Z,649.00
2023-04-21T16:46:59.594Z,651.00
2023-04-21T16:48:00.723Z,649.00
2023-04-21T16:48:59.623Z,643.00
2023-04-21T16:49:59.519Z,652.00
2023-04-21T16:50:59.549Z,641.00
2023-04-21T16:52:00.547Z,638.00
2023-04-21T16:53:00.535Z,638.00
2023-04-21T16:54:00.511Z,635.00
2023-04-21T16:55:00.491Z,631.00
2023-04-21T16:55:59.508Z,649.00
2023-04-21T16:57:00.482Z,657.00
2023-04-21T16:57:59.465Z,648.00
2023-04-21T16:59:00.448Z,632.00
2023-04-21T16:59:59.450Z,640.00
2023-04-21T17:00:59.586Z,637.00
2023-04-21T17:01:59.540Z,636.00
2023-04-21T17:03:00.708Z,632.00
2023-04-21T17:04:00.766Z,629.00
2023-04-21T17:04:59.620Z,634.00
2023-04-21T17:05:59.679Z,634.00
2023-04-21T17:07:00.690Z,633.00
2023-04-21T17:07:59.971Z,643.00
2023-04-21T17:09:00.775Z,644.00
2023-04-21T17:09:59.784Z,643.00
2023-04-21T17:11:01.035Z,641.00
2023-04-21T17:12:00.830Z,643.00
2023-04-21T17:12:59.838Z,667.00
2023-04-21T17:13:59.865Z,654.00
2023-04-21T17:15:00.880Z,661.00
2023-04-21T17:16:01.044Z,655.00
2023-04-21T17:17:01.096Z,651.00
2023-04-21T17:18:00.126Z,662.00
2023-04-21T17:19:01.108Z,664.00
2023-04-21T17:20:00.168Z,651.00
2023-04-21T17:21:00.146Z,630.00
2023-04-21T17:22:01.128Z,652.00
2023-04-21T17:23:00.156Z,654.00
2023-04-21T17:24:01.187Z,654.00
2023-04-21T17:25:00.359Z,661.00
2023-04-21T17:26:01.226Z,650.00
2023-04-21T17:27:01.228Z,661.00
2023-04-21T17:28:00.253Z,653.00
2023-04-21T17:29:00.296Z,645.00
2023-04-21T17:30:00.354Z,649.00
2023-04-21T17:31:14.334Z,649.00
2023-04-21T17:32:01.391Z,652.00
2023-04-21T17:33:15.560Z,661.00
2023-04-21T17:34:01.349Z,650.00
2023-04-21T17:35:01.368Z,645.00
2023-04-21T17:36:03.356Z,651.00
2023-04-21T17:37:00.321Z,651.00
2023-04-21T17:38:01.316Z,649.00
2023-04-21T17:39:01.308Z,646.00
2023-04-21T17:40:02.436Z,644.00
2023-04-21T17:41:00.325Z,642.00
2023-04-21T17:42:00.307Z,642.00
2023-04-21T17:43:01.293Z,641.00
2023-04-21T17:44:01.282Z,641.00
2023-04-21T17:45:00.281Z,639.00
2023-04-21T17:46:01.305Z,643.00
2023-04-21T17:47:00.248Z,641.00
2023-04-21T17:48:00.340Z,645.00
2023-04-21T17:49:00.244Z,641.00
2023-04-21T17:50:00.323Z,639.00
2023-04-21T17:51:01.227Z,641.00
2023-04-21T17:52:00.214Z,633.00
2023-04-21T17:53:01.198Z,647.00
2023-04-21T17:54:01.222Z,649.00
2023-04-21T17:55:00.206Z,643.00
2023-04-21T17:56:00.251Z,638.00
2023-04-21T17:57:01.189Z,641.00
2023-04-21T17:58:00.191Z,627.00
2023-04-21T17:59:01.172Z,635.00
2023-04-21T18:00:01.164Z,627.00
2023-04-21T18:01:01.161Z,626.00